Details for Air New Zealand at NZCH




Go Back


Latest METAR
Local Time

NZCH 022100Z AUTO 34002KT 9999 OVC011/// 11/10 Q1023 TEMPO 4000 BR BKN005
03/04/2020, 10:28:03

Description
Results
Air New Zealand Logo
Number of Pilots based at NZCH
0 Pilots Based here
Number of Air New Zealand Flights Departed from NZCH
0 Flights Departed
Number of Air New Zealand Flights Arrived at NZCH
0 Flights Arrived
Number of Air New Zealand Schedules Departing from NZCH
57 Schedules
Number of Air New Zealand Schedules Arriving at NZCH
53 Schedules
Number of Air New Zealand Schedules Departing from NZCH availible today
36 Schedules Today
Number of Air New Zealand Schedules Arriving at NZCH availible today
36 Schedules Today
Average Landing Rate at NZCH
-197 fpm
Air New Zealand Average Landing Rate at NZCH
0 fpm
Total Fuel Purchased at NZCH by Air New Zealand
0.00 kgs / 0.00 lbs

Pilots Based at NZCH


Pilot ID
Pilot Name
Pilot Rank
No. of Flights
No. of Flying Hours
There are no pilots assigned to this hub!   Will you be the first?